createdAt,value
2022-12-12T00:01:22.997Z,21.38
2022-12-12T00:03:50.241Z,21.33
2022-12-12T00:06:17.467Z,22.73
2022-12-12T00:08:44.125Z,23.70
2022-12-12T00:11:10.936Z,22.30
2022-12-12T00:13:38.189Z,23.17
2022-12-12T00:16:09.192Z,23.05
2022-12-12T00:18:39.347Z,23.23
2022-12-12T00:21:12.019Z,24.35
2022-12-12T00:23:38.769Z,22.67
2022-12-12T00:26:08.505Z,23.30
2022-12-12T00:28:35.665Z,22.23
2022-12-12T00:31:02.356Z,21.02
2022-12-12T00:33:29.002Z,19.73
2022-12-12T00:35:55.813Z,20.35
2022-12-12T00:38:23.629Z,20.90
2022-12-12T00:40:55.521Z,20.83
2022-12-12T00:43:22.308Z,20.92
2022-12-12T00:45:48.915Z,21.35
2022-12-12T00:48:15.639Z,21.33
2022-12-12T00:50:42.292Z,22.63
2022-12-12T00:53:09.070Z,22.08
2022-12-12T00:55:35.757Z,21.67
2022-12-12T00:58:02.440Z,20.58
2022-12-12T01:00:29.381Z,22.52
2022-12-12T01:02:57.541Z,21.17
2022-12-12T01:05:25.541Z,22.25
2022-12-12T01:07:52.561Z,21.23
2022-12-12T01:10:19.553Z,21.58
2022-12-12T01:12:46.300Z,23.08
2022-12-12T01:15:13.436Z,22.30
2022-12-12T01:17:40.296Z,23.17
2022-12-12T01:20:14.406Z,22.92
2022-12-12T01:22:41.103Z,20.52
2022-12-12T01:25:07.953Z,21.95
2022-12-12T01:27:34.598Z,21.77
2022-12-12T01:30:02.581Z,23.10
2022-12-12T01:32:29.446Z,22.00
2022-12-12T01:34:56.146Z,21.70
2022-12-12T01:37:22.903Z,22.08
2022-12-12T01:39:49.637Z,22.50
2022-12-12T01:42:19.007Z,22.48
2022-12-12T01:44:45.960Z,22.67
2022-12-12T01:47:15.344Z,22.67
2022-12-12T01:49:45.698Z,23.85
2022-12-12T01:52:21.025Z,22.70
2022-12-12T01:54:52.562Z,22.52
2022-12-12T01:57:26.794Z,23.42
2022-12-12T01:59:53.586Z,23.00
2022-12-12T02:02:20.407Z,23.98
2022-12-12T02:04:47.135Z,21.70
2022-12-12T02:07:13.799Z,23.17
2022-12-12T02:09:40.932Z,21.73
2022-12-12T02:12:07.689Z,22.60
2022-12-12T02:14:40.801Z,21.73
2022-12-12T02:17:16.156Z,23.48
2022-12-12T02:20:14.359Z,22.75
2022-12-12T02:23:17.491Z,22.27
2022-12-12T02:26:30.727Z,21.98
2022-12-12T02:29:25.823Z,22.00
2022-12-12T02:31:59.998Z,22.15
2022-12-12T02:35:17.216Z,24.05
2022-12-12T02:37:55.393Z,22.40
2022-12-12T02:40:35.916Z,23.50
2022-12-12T02:43:12.996Z,22.55
2022-12-12T02:45:51.353Z,22.92
2022-12-12T02:48:49.852Z,23.02
2022-12-12T02:51:19.100Z,21.77
2022-12-12T02:53:45.789Z,23.05
2022-12-12T02:56:45.715Z,24.70
2022-12-12T02:59:34.137Z,25.52
2022-12-12T03:02:10.929Z,24.98
2022-12-12T03:04:56.040Z,24.33
2022-12-12T03:07:59.587Z,24.05
2022-12-12T03:10:41.169Z,24.27
2022-12-12T03:13:21.806Z,24.05
2022-12-12T03:16:15.920Z,24.30
2022-12-12T03:18:45.350Z,25.33
2022-12-12T03:21:21.864Z,25.17
2022-12-12T03:23:53.351Z,26.02
2022-12-12T03:29:00.609Z,24.20
2022-12-12T03:31:31.421Z,25.20
2022-12-12T03:34:02.848Z,20.77
2022-12-12T03:36:51.916Z,25.48
2022-12-12T03:39:29.720Z,24.20
2022-12-12T03:42:03.574Z,24.63
2022-12-12T03:44:42.073Z,25.70
2022-12-12T03:47:22.568Z,23.15
2022-12-12T03:49:58.909Z,22.23
2022-12-12T03:52:32.488Z,22.73
2022-12-12T03:55:15.226Z,21.10
2022-12-12T03:58:01.641Z,24.10
2022-12-12T04:00:31.708Z,21.92
2022-12-12T04:03:02.837Z,22.38
2022-12-12T04:06:06.985Z,23.27
2022-12-12T04:08:35.010Z,21.77
2022-12-12T04:11:32.191Z,21.55
2022-12-12T04:14:24.345Z,21.95
2022-12-12T04:17:00.502Z,19.92
2022-12-12T04:19:56.087Z,21.77
2022-12-12T04:22:46.073Z,20.48
2022-12-12T04:26:03.020Z,20.80
2022-12-12T04:28:32.421Z,19.33
2022-12-12T04:31:04.850Z,20.90
2022-12-12T04:33:44.257Z,20.35
2022-12-12T04:36:13.319Z,22.13
2022-12-12T04:38:42.084Z,21.33
2022-12-12T04:41:11.602Z,21.05
2022-12-12T04:43:40.041Z,22.75
2022-12-12T04:46:18.835Z,22.42
2022-12-12T04:48:53.921Z,23.42
2022-12-12T04:51:31.441Z,21.90
2022-12-12T04:54:09.490Z,22.00
2022-12-12T04:56:38.643Z,21.60
2022-12-12T04:59:06.732Z,20.48
2022-12-12T05:01:58.216Z,21.02
2022-12-12T05:04:31.971Z,20.67
2022-12-12T05:07:04.770Z,21.17
2022-12-12T05:09:31.656Z,21.60
2022-12-12T05:11:58.578Z,20.83
2022-12-12T05:14:25.199Z,21.42
2022-12-12T05:16:55.746Z,21.35
2022-12-12T05:19:22.572Z,19.50
2022-12-12T05:21:49.355Z,21.17
2022-12-12T05:24:16.003Z,19.08
2022-12-12T05:26:42.667Z,21.20
2022-12-12T05:29:09.362Z,20.33
2022-12-12T05:31:36.039Z,20.83
2022-12-12T05:34:03.452Z,21.52
2022-12-12T05:36:30.214Z,21.95
2022-12-12T05:38:56.858Z,21.90
2022-12-12T05:41:23.743Z,20.23
2022-12-12T05:43:50.475Z,22.23
2022-12-12T05:46:17.179Z,20.48
2022-12-12T05:48:44.510Z,21.83
2022-12-12T05:51:11.164Z,19.58
2022-12-12T05:53:42.759Z,21.02
2022-12-12T05:56:11.511Z,20.75
2022-12-12T05:58:43.078Z,19.75
2022-12-12T06:01:10.227Z,19.93
2022-12-12T06:03:37.048Z,20.63
2022-12-12T06:06:03.947Z,20.88
2022-12-12T06:08:30.869Z,19.83
2022-12-12T06:10:57.521Z,21.45
2022-12-12T06:13:24.195Z,21.77
2022-12-12T06:15:50.910Z,20.42
2022-12-12T06:18:17.621Z,20.65
2022-12-12T06:20:44.290Z,20.23
2022-12-12T06:23:10.936Z,20.55
2022-12-12T06:25:37.669Z,20.83
2022-12-12T06:28:04.402Z,20.50
2022-12-12T06:30:31.272Z,22.35
2022-12-12T06:32:58.062Z,19.38
2022-12-12T06:35:24.718Z,20.70
2022-12-12T06:37:51.394Z,20.98
2022-12-12T06:40:18.165Z,20.70
2022-12-12T06:42:48.246Z,21.27
2022-12-12T06:45:16.163Z,22.63
2022-12-12T06:47:43.124Z,22.90
2022-12-12T06:50:09.931Z,22.08
2022-12-12T06:52:36.588Z,22.80
2022-12-12T06:55:03.796Z,22.70
2022-12-12T06:57:30.530Z,22.67
2022-12-12T06:59:57.215Z,23.13
2022-12-12T07:02:29.521Z,22.92
2022-12-12T07:04:57.460Z,21.77
2022-12-12T07:07:24.258Z,22.45
2022-12-12T07:09:50.930Z,23.40
2022-12-12T07:12:17.667Z,25.30
2022-12-12T07:14:44.324Z,23.10
2022-12-12T07:17:10.955Z,23.58
2022-12-12T07:19:37.598Z,22.60
2022-12-12T07:22:09.373Z,22.20
2022-12-12T07:24:37.012Z,22.05
2022-12-12T07:27:04.135Z,22.23
2022-12-12T07:29:30.911Z,22.40
2022-12-12T07:31:57.641Z,23.38
2022-12-12T07:34:24.483Z,22.77
2022-12-12T07:36:51.193Z,23.77
2022-12-12T07:39:20.922Z,21.77
2022-12-12T07:41:48.205Z,23.55
2022-12-12T07:44:20.984Z,21.55
2022-12-12T07:46:47.671Z,22.98
2022-12-12T07:49:14.373Z,22.40
2022-12-12T07:51:45.654Z,22.60
2022-12-12T07:54:15.510Z,22.42
2022-12-12T07:56:42.202Z,23.13
2022-12-12T07:59:08.803Z,21.85
2022-12-12T08:01:35.515Z,23.10
2022-12-12T08:04:02.226Z,22.83
2022-12-12T08:06:30.182Z,21.95
2022-12-12T08:08:57.179Z,22.50
2022-12-12T08:11:25.182Z,21.20
2022-12-12T08:13:53.279Z,22.35
2022-12-12T08:16:26.178Z,20.98
2022-12-12T08:18:57.409Z,23.77
2022-12-12T08:21:26.583Z,22.48
2022-12-12T08:24:02.109Z,23.33
2022-12-12T08:26:29.847Z,23.65
2022-12-12T08:28:57.182Z,21.80
2022-12-12T08:31:24.995Z,23.85
2022-12-12T08:33:52.068Z,23.85
2022-12-12T08:36:25.125Z,22.33
2022-12-12T08:38:52.443Z,21.40
2022-12-12T08:41:19.606Z,21.40
2022-12-12T08:43:46.833Z,24.15
2022-12-12T08:46:17.824Z,28.67
2022-12-12T08:48:46.007Z,32.00
2022-12-12T08:51:13.389Z,26.55
2022-12-12T08:53:40.264Z,23.05
2022-12-12T08:56:07.606Z,23.63
2022-12-12T08:58:34.378Z,23.38
2022-12-12T09:01:01.020Z,23.42
2022-12-12T09:03:29.799Z,23.98
2022-12-12T09:05:56.748Z,23.00
2022-12-12T09:08:23.574Z,23.52
2022-12-12T09:10:50.740Z,23.95
2022-12-12T09:13:18.385Z,23.85
2022-12-12T09:15:45.271Z,22.35
2022-12-12T09:18:12.275Z,25.25
2022-12-12T09:20:38.878Z,22.20
2022-12-12T09:23:05.635Z,23.02
2022-12-12T09:25:32.317Z,24.48
2022-12-12T09:27:59.089Z,22.65
2022-12-12T09:30:25.702Z,22.60
2022-12-12T09:32:52.464Z,21.27
2022-12-12T09:35:19.464Z,21.05
2022-12-12T09:37:46.205Z,20.38
2022-12-12T09:40:20.985Z,20.77
2022-12-12T09:42:51.146Z,18.58
2022-12-12T09:45:19.299Z,18.08
2022-12-12T09:47:49.429Z,18.73
2022-12-12T09:50:25.110Z,16.90
2022-12-12T09:52:53.869Z,16.88
2022-12-12T09:55:20.473Z,16.00
2022-12-12T09:57:56.148Z,15.90
2022-12-12T10:00:22.888Z,14.60
2022-12-12T10:03:31.453Z,13.88
2022-12-12T10:06:35.949Z,13.43
2022-12-12T10:09:18.433Z,14.20
2022-12-12T10:11:51.482Z,13.38
2022-12-12T10:14:21.291Z,13.18
2022-12-12T10:16:52.438Z,13.93
2022-12-12T10:19:29.490Z,13.15
2022-12-12T10:22:04.517Z,12.93
2022-12-12T10:24:42.597Z,13.27
2022-12-12T10:27:12.538Z,12.88
2022-12-12T10:29:47.308Z,12.80
2022-12-12T10:32:38.723Z,12.80
2022-12-12T10:35:30.856Z,13.35
2022-12-12T10:38:33.974Z,11.45
2022-12-12T10:41:19.875Z,11.13
2022-12-12T10:43:52.941Z,11.82
2022-12-12T10:46:31.311Z,12.68
2022-12-12T10:48:58.257Z,12.52
2022-12-12T10:51:27.739Z,12.65
2022-12-12T10:53:54.504Z,11.45
2022-12-12T10:56:22.604Z,11.38
2022-12-12T10:58:55.159Z,11.68
2022-12-12T11:04:22.317Z,10.00
2022-12-12T11:06:52.263Z,9.60
2022-12-12T11:09:20.780Z,10.20
2022-12-12T11:12:13.303Z,11.43
2022-12-12T11:14:41.235Z,11.40
2022-12-12T11:17:25.324Z,10.30
2022-12-12T11:19:56.897Z,11.35
2022-12-12T11:22:24.171Z,10.18
2022-12-12T11:24:52.471Z,11.57
2022-12-12T11:27:38.161Z,10.10
2022-12-12T11:30:07.930Z,9.73
2022-12-12T11:32:40.182Z,9.90
2022-12-12T11:35:26.099Z,9.93
2022-12-12T11:37:57.723Z,9.00
2022-12-12T11:43:17.920Z,9.25
2022-12-12T11:48:33.281Z,9.95
2022-12-12T11:51:00.547Z,9.93
2022-12-12T11:53:27.529Z,10.60
2022-12-12T11:56:03.763Z,8.52
2022-12-12T11:58:46.903Z,10.77
2022-12-12T12:01:26.201Z,10.18
2022-12-12T12:04:06.413Z,10.13
2022-12-12T12:07:02.565Z,9.60
2022-12-12T12:09:44.250Z,10.32
2022-12-12T12:14:58.356Z,9.52
2022-12-12T12:17:39.930Z,10.05
2022-12-12T12:20:12.913Z,9.73
2022-12-12T12:22:45.098Z,10.05
2022-12-12T12:25:24.385Z,9.52
2022-12-12T12:28:07.869Z,9.35
2022-12-12T12:30:52.511Z,10.07
2022-12-12T12:33:50.131Z,11.27
2022-12-12T12:36:51.770Z,9.50
2022-12-12T12:39:42.955Z,10.00
2022-12-12T12:42:49.288Z,7.95
2022-12-12T12:45:22.253Z,10.15
2022-12-12T12:47:58.757Z,9.32
2022-12-12T12:50:38.207Z,10.73
2022-12-12T12:53:35.689Z,9.25
2022-12-12T12:56:26.036Z,8.73
2022-12-12T12:59:03.032Z,9.45
2022-12-12T13:01:36.551Z,9.13
2022-12-12T13:04:21.756Z,9.65
2022-12-12T13:07:03.379Z,10.25
2022-12-12T13:09:46.971Z,9.75
2022-12-12T13:12:28.651Z,9.20
2022-12-12T13:18:04.748Z,9.20
2022-12-12T13:20:37.909Z,9.02
2022-12-12T13:23:37.581Z,9.45
2022-12-12T13:26:18.273Z,10.43
2022-12-12T13:28:53.579Z,10.35
2022-12-12T13:31:53.742Z,10.98
2022-12-12T13:34:25.524Z,10.35
2022-12-12T13:36:53.506Z,9.35
2022-12-12T13:39:35.680Z,9.05
2022-12-12T13:42:05.707Z,9.93
2022-12-12T13:44:42.875Z,9.20
2022-12-12T13:47:21.948Z,9.07
2022-12-12T13:50:27.086Z,9.88
2022-12-12T13:53:08.870Z,9.20
2022-12-12T13:58:08.117Z,9.45
2022-12-12T14:00:39.811Z,9.43
2022-12-12T14:03:21.206Z,8.52
2022-12-12T14:05:52.281Z,8.63
2022-12-12T14:08:23.570Z,8.27
2022-12-12T14:11:02.526Z,9.55
2022-12-12T14:13:32.384Z,8.35
2022-12-12T14:16:06.850Z,8.65
2022-12-12T14:18:57.902Z,8.87
2022-12-12T14:21:38.992Z,9.00
2022-12-12T14:24:34.835Z,8.07
2022-12-12T14:27:06.201Z,8.13
2022-12-12T14:32:13.503Z,7.78
2022-12-12T14:35:07.632Z,7.25
2022-12-12T14:37:36.860Z,7.38
2022-12-12T14:40:12.620Z,6.57
2022-12-12T14:43:21.348Z,7.55
2022-12-12T14:45:41.127Z,7.38
2022-12-12T14:48:29.095Z,6.85
2022-12-12T14:51:29.918Z,8.35
2022-12-12T14:53:59.230Z,8.70
2022-12-12T14:56:52.750Z,7.50
2022-12-12T14:59:28.467Z,7.65
2022-12-12T15:01:57.524Z,7.88
2022-12-12T15:04:26.233Z,7.20
2022-12-12T15:06:54.762Z,7.60
2022-12-12T15:09:31.334Z,8.00
2022-12-12T15:12:10.155Z,7.72
2022-12-12T15:14:39.006Z,7.63
2022-12-12T15:17:08.295Z,7.50
2022-12-12T15:19:43.148Z,7.35
2022-12-12T15:22:37.800Z,8.15
2022-12-12T15:25:16.014Z,8.10
2022-12-12T15:27:49.503Z,7.65
2022-12-12T15:30:33.018Z,9.13
2022-12-12T15:33:01.176Z,9.30
2022-12-12T15:35:28.363Z,8.68
2022-12-12T15:37:59.498Z,7.47
2022-12-12T15:40:31.390Z,8.02
2022-12-12T15:43:03.901Z,7.40
2022-12-12T15:45:36.733Z,11.20
2022-12-12T15:48:05.464Z,12.52
2022-12-12T15:50:44.407Z,22.25
2022-12-12T15:53:25.390Z,19.58
2022-12-12T15:55:55.085Z,27.42
2022-12-12T15:58:29.209Z,26.60
2022-12-12T16:01:20.943Z,19.77
2022-12-12T16:04:08.239Z,18.85
2022-12-12T16:06:40.423Z,18.25
2022-12-12T16:09:07.065Z,15.38
2022-12-12T16:11:46.825Z,12.27
2022-12-12T16:14:39.704Z,12.90
2022-12-12T16:17:20.572Z,12.43
2022-12-12T16:19:57.361Z,14.15
2022-12-12T16:22:37.226Z,12.50
2022-12-12T16:25:16.665Z,11.38
2022-12-12T16:27:44.699Z,16.48
2022-12-12T16:30:15.024Z,20.35
2022-12-12T16:32:42.608Z,19.23
2022-12-12T16:35:23.191Z,17.42
2022-12-12T16:37:51.210Z,18.67
2022-12-12T16:40:19.946Z,17.67
2022-12-12T16:43:04.758Z,17.88
2022-12-12T16:45:34.632Z,17.20
2022-12-12T16:48:01.340Z,17.05
2022-12-12T16:50:28.083Z,15.85
2022-12-12T16:52:54.762Z,16.35
2022-12-12T16:55:23.435Z,16.30
2022-12-12T16:57:50.644Z,15.45
2022-12-12T17:00:17.844Z,16.23
2022-12-12T17:02:44.699Z,15.48
2022-12-12T17:05:18.967Z,15.32
2022-12-12T17:07:45.820Z,18.60
2022-12-12T17:10:12.952Z,17.88
2022-12-12T17:12:40.379Z,16.75
2022-12-12T17:15:07.667Z,16.05
2022-12-12T17:17:34.287Z,14.98
2022-12-12T17:20:00.919Z,15.68
2022-12-12T17:22:27.556Z,16.92
2022-12-12T17:24:54.176Z,17.38
2022-12-12T17:27:20.808Z,15.85
2022-12-12T17:29:47.600Z,15.50
2022-12-12T17:32:14.377Z,15.73
2022-12-12T17:34:41.110Z,15.68
2022-12-12T17:37:07.746Z,15.63
2022-12-12T17:39:34.466Z,14.95
2022-12-12T17:42:01.109Z,15.63
2022-12-12T17:44:27.909Z,17.27
2022-12-12T17:46:54.930Z,15.43
2022-12-12T17:49:21.555Z,14.98
2022-12-12T17:51:48.323Z,14.93
2022-12-12T17:54:15.048Z,15.30
2022-12-12T17:56:41.673Z,15.15
2022-12-12T17:59:08.706Z,17.33
2022-12-12T18:01:35.407Z,15.95
2022-12-12T18:04:04.261Z,16.85
2022-12-12T18:06:33.324Z,44.22
2022-12-12T18:09:00.876Z,27.08
2022-12-12T18:11:31.361Z,69.82
2022-12-12T18:14:01.183Z,54.38
2022-12-12T18:16:29.938Z,39.10
2022-12-12T18:18:57.305Z,29.67
2022-12-12T18:21:59.094Z,23.45
2022-12-12T18:26:43.045Z,15.93
2022-12-12T18:29:12.697Z,18.13
2022-12-12T18:31:39.801Z,16.23
2022-12-12T18:34:06.530Z,16.70
2022-12-12T18:36:33.196Z,15.63
2022-12-12T18:39:02.260Z,16.00
2022-12-12T18:41:31.317Z,16.08
2022-12-12T18:43:58.086Z,20.67
2022-12-12T18:46:27.148Z,20.08
2022-12-12T18:48:53.966Z,19.23
2022-12-12T18:51:23.413Z,16.77
2022-12-12T18:53:51.767Z,17.67
2022-12-12T18:56:24.382Z,18.27
2022-12-12T18:58:53.264Z,17.73
2022-12-12T19:01:23.151Z,20.42
2022-12-12T19:03:51.863Z,22.38
2022-12-12T19:06:22.081Z,21.52
2022-12-12T19:08:49.750Z,20.65
2022-12-12T19:11:17.082Z,19.73
2022-12-12T19:13:44.772Z,19.75
2022-12-12T19:16:20.157Z,19.90
2022-12-12T19:18:47.637Z,20.00
2022-12-12T19:21:24.777Z,18.25
2022-12-12T19:23:52.136Z,18.27
2022-12-12T19:26:28.106Z,19.98
2022-12-12T19:29:04.475Z,19.60
2022-12-12T19:31:35.724Z,19.08
2022-12-12T19:34:04.035Z,17.98
2022-12-12T19:36:31.406Z,20.48
2022-12-12T19:38:59.653Z,20.70
2022-12-12T19:41:27.403Z,21.60
2022-12-12T19:43:55.115Z,21.38
2022-12-12T19:46:24.405Z,21.25
2022-12-12T19:49:02.907Z,20.02
2022-12-12T19:51:35.947Z,21.25
2022-12-12T19:54:07.130Z,21.90
2022-12-12T19:56:35.904Z,19.55
2022-12-12T19:59:03.006Z,21.20
2022-12-12T20:01:32.170Z,20.60
2022-12-12T20:04:05.148Z,22.25
2022-12-12T20:06:41.163Z,22.25
2022-12-12T20:09:10.120Z,22.75
2022-12-12T20:11:38.278Z,21.08
2022-12-12T20:14:05.054Z,21.83
2022-12-12T20:16:31.727Z,22.40
2022-12-12T20:18:59.163Z,24.65
2022-12-12T20:21:59.679Z,22.20
2022-12-12T20:24:16.883Z,23.88
2022-12-12T20:26:43.895Z,22.13
2022-12-12T20:29:12.605Z,23.17
2022-12-12T20:31:45.366Z,24.88
2022-12-12T20:34:13.606Z,27.77
2022-12-12T20:36:41.212Z,29.95
2022-12-12T20:39:11.672Z,30.23
2022-12-12T20:41:39.844Z,27.83
2022-12-12T20:44:08.475Z,28.42
2022-12-12T20:46:37.911Z,27.30
2022-12-12T20:49:08.185Z,25.88
2022-12-12T20:54:24.006Z,25.75
2022-12-12T20:56:50.693Z,25.88
2022-12-12T20:59:17.620Z,24.23
2022-12-12T21:01:44.321Z,25.85
2022-12-12T21:04:11.095Z,23.67
2022-12-12T21:06:40.299Z,26.17
2022-12-12T21:09:10.609Z,24.98
2022-12-12T21:11:38.800Z,25.02
2022-12-12T21:14:07.010Z,24.48
2022-12-12T21:16:36.899Z,23.27
2022-12-12T21:19:11.868Z,25.80
2022-12-12T21:21:40.739Z,23.65
2022-12-12T21:24:08.358Z,23.88
2022-12-12T21:26:35.158Z,23.98
2022-12-12T21:29:01.982Z,25.00
2022-12-12T21:31:36.209Z,22.80
2022-12-12T21:34:05.246Z,25.00
2022-12-12T21:36:32.821Z,24.98
2022-12-12T21:39:01.128Z,25.08
2022-12-12T21:41:28.316Z,22.95
2022-12-12T21:43:59.338Z,23.75
2022-12-12T21:46:28.196Z,24.35
2022-12-12T21:49:13.804Z,25.00
2022-12-12T21:51:41.499Z,24.63
2022-12-12T21:54:09.843Z,25.58
2022-12-12T21:56:38.061Z,25.88
2022-12-12T21:59:04.719Z,24.15
2022-12-12T22:01:34.566Z,24.88
2022-12-12T22:04:01.433Z,23.83
2022-12-12T22:06:31.016Z,25.48
2022-12-12T22:09:00.011Z,25.95
2022-12-12T22:11:41.226Z,26.73
2022-12-12T22:14:17.809Z,25.25
2022-12-12T22:16:44.991Z,26.42
2022-12-12T22:19:13.655Z,29.58
2022-12-12T22:21:40.488Z,29.08
2022-12-12T22:24:08.052Z,29.58
2022-12-12T22:26:38.078Z,26.83
2022-12-12T22:29:08.556Z,27.83
2022-12-12T22:31:37.531Z,30.02
2022-12-12T22:34:07.540Z,25.25
2022-12-12T22:36:36.853Z,24.90
2022-12-12T22:39:06.111Z,25.10
2022-12-12T22:41:33.274Z,25.10
2022-12-12T22:44:05.134Z,24.60
2022-12-12T22:46:32.855Z,24.02
2022-12-12T22:49:01.164Z,24.65
2022-12-12T22:51:30.708Z,23.63
2022-12-12T22:53:59.479Z,23.50
2022-12-12T22:56:28.657Z,23.73
2022-12-12T22:58:55.586Z,22.27
2022-12-12T23:01:24.459Z,23.88
2022-12-12T23:03:52.186Z,21.33
2022-12-12T23:06:22.032Z,22.27
2022-12-12T23:08:54.108Z,22.02
2022-12-12T23:11:22.247Z,21.30
2022-12-12T23:13:49.317Z,23.05
2022-12-12T23:16:18.646Z,22.70
2022-12-12T23:18:47.408Z,22.27
2022-12-12T23:21:18.684Z,22.05
2022-12-12T23:23:46.061Z,21.63
2022-12-12T23:26:16.789Z,21.35
2022-12-12T23:28:44.804Z,23.95
2022-12-12T23:31:15.185Z,23.95
2022-12-12T23:33:42.353Z,16.35
2022-12-12T23:36:10.629Z,24.95
2022-12-12T23:38:37.981Z,23.63
2022-12-12T23:41:06.726Z,22.80
2022-12-12T23:43:33.627Z,22.05
2022-12-12T23:46:09.377Z,23.17
2022-12-12T23:48:36.147Z,22.88
2022-12-12T23:51:02.900Z,21.90
2022-12-12T23:53:32.524Z,21.35
2022-12-12T23:56:04.450Z,21.38
2022-12-12T23:58:31.081Z,21.95
